createdAt,value
2018-06-20T00:00:21.907Z,19.33
2018-06-20T00:02:50.577Z,19.43
2018-06-20T00:05:19.332Z,19.42
2018-06-20T00:07:48.361Z,19.37
2018-06-20T00:10:16.971Z,19.41
2018-06-20T00:12:45.582Z,19.34
2018-06-20T00:15:14.234Z,19.13
2018-06-20T00:17:42.848Z,18.65
2018-06-20T00:20:11.743Z,18.64
2018-06-20T00:22:40.339Z,18.51
2018-06-20T00:25:08.974Z,18.64
2018-06-20T00:27:37.596Z,18.66
2018-06-20T00:30:06.263Z,18.78
2018-06-20T00:32:34.918Z,18.82
2018-06-20T00:35:03.530Z,18.90
2018-06-20T00:37:32.124Z,18.91
2018-06-20T00:40:00.774Z,18.85
2018-06-20T00:42:29.405Z,18.84
2018-06-20T00:44:58.037Z,18.58
2018-06-20T00:47:26.879Z,18.18
2018-06-20T00:49:55.507Z,18.14
2018-06-20T00:52:24.083Z,18.15
2018-06-20T00:54:52.717Z,18.28
2018-06-20T00:57:21.351Z,18.45
2018-06-20T00:59:49.993Z,18.24
2018-06-20T01:02:18.624Z,18.23
2018-06-20T01:04:47.342Z,18.11
2018-06-20T01:07:16.012Z,18.09
2018-06-20T01:09:44.630Z,17.97
2018-06-20T01:12:13.256Z,18.29
2018-06-20T01:14:41.882Z,18.40
2018-06-20T01:17:10.508Z,18.26
2018-06-20T01:19:39.141Z,18.28
2018-06-20T01:22:07.787Z,18.42
2018-06-20T01:24:36.434Z,18.52
2018-06-20T01:27:05.120Z,18.58
2018-06-20T01:29:33.739Z,18.63
2018-06-20T01:32:02.433Z,18.44
2018-06-20T01:34:31.054Z,18.31
2018-06-20T01:36:59.685Z,18.22
2018-06-20T01:39:28.376Z,18.06
2018-06-20T01:41:56.982Z,18.04
2018-06-20T01:44:25.636Z,18.14
2018-06-20T01:46:54.282Z,18.09
2018-06-20T01:49:22.919Z,18.32
2018-06-20T01:51:51.538Z,18.36
2018-06-20T01:54:20.175Z,18.28
2018-06-20T01:56:48.839Z,18.02
2018-06-20T01:59:17.431Z,17.89
2018-06-20T02:01:46.045Z,17.95
2018-06-20T02:04:14.957Z,17.76
2018-06-20T02:06:43.574Z,17.54
2018-06-20T02:09:12.194Z,17.50
2018-06-20T02:11:40.851Z,17.31
2018-06-20T02:14:09.485Z,17.28
2018-06-20T02:16:38.149Z,17.10
2018-06-20T02:19:06.869Z,17.20
2018-06-20T02:21:35.510Z,17.27
2018-06-20T02:24:04.114Z,17.43
2018-06-20T02:26:32.756Z,17.41
2018-06-20T02:29:01.437Z,17.36
2018-06-20T02:31:30.034Z,17.08
2018-06-20T02:33:58.655Z,16.87
2018-06-20T02:36:32.780Z,16.74
2018-06-20T02:39:02.832Z,16.56
2018-06-20T02:41:31.492Z,16.64
2018-06-20T02:44:00.732Z,16.78
2018-06-20T02:46:29.356Z,16.65
2018-06-20T02:48:58.037Z,16.66
2018-06-20T02:51:26.714Z,16.56
2018-06-20T02:53:55.421Z,16.80
2018-06-20T02:56:24.104Z,17.11
2018-06-20T02:58:52.762Z,17.15
2018-06-20T03:01:21.403Z,16.99
2018-06-20T03:03:50.038Z,16.82
2018-06-20T03:06:18.651Z,16.98
2018-06-20T03:08:51.458Z,16.97
2018-06-20T03:11:20.327Z,16.58
2018-06-20T03:13:49.350Z,16.18
2018-06-20T03:16:18.037Z,16.11
2018-06-20T03:18:46.621Z,16.30
2018-06-20T03:21:15.275Z,16.44
2018-06-20T03:23:43.919Z,16.33
2018-06-20T03:26:12.535Z,16.17
2018-06-20T03:28:41.125Z,16.11
2018-06-20T03:31:09.734Z,16.14
2018-06-20T03:33:38.673Z,16.30
2018-06-20T03:36:07.371Z,16.52
2018-06-20T03:38:35.977Z,16.65
2018-06-20T03:41:04.589Z,16.85
2018-06-20T03:43:33.226Z,16.93
2018-06-20T03:46:01.880Z,17.27
2018-06-20T03:48:30.538Z,17.23
2018-06-20T03:50:59.591Z,17.19
2018-06-20T03:53:28.502Z,16.02
2018-06-20T03:55:57.106Z,17.21
2018-06-20T03:58:25.762Z,17.31
2018-06-20T04:00:54.403Z,17.36
2018-06-20T04:03:23.025Z,17.41
2018-06-20T04:05:51.973Z,17.43
2018-06-20T04:08:21.325Z,17.47
2018-06-20T04:10:49.956Z,17.54
2018-06-20T04:13:18.901Z,17.57
2018-06-20T04:15:47.469Z,17.64
2018-06-20T04:18:16.114Z,17.68
2018-06-20T04:20:44.735Z,17.76
2018-06-20T04:23:13.360Z,17.98
2018-06-20T04:25:41.986Z,18.03
2018-06-20T04:28:10.656Z,17.97
2018-06-20T04:30:39.310Z,17.91
2018-06-20T04:33:08.696Z,18.04
2018-06-20T04:35:37.323Z,18.19
2018-06-20T04:38:06.326Z,18.23
2018-06-20T04:40:34.969Z,18.31
2018-06-20T04:43:03.619Z,18.48
2018-06-20T04:45:32.277Z,18.56
2018-06-20T04:48:00.941Z,18.52
2018-06-20T04:50:29.610Z,18.64
2018-06-20T04:52:58.563Z,18.76
2018-06-20T04:55:27.552Z,18.72
2018-06-20T04:57:56.182Z,18.68
2018-06-20T05:00:24.839Z,18.75
2018-06-20T05:02:53.760Z,19.04
2018-06-20T05:05:22.406Z,19.12
2018-06-20T05:07:51.110Z,19.42
2018-06-20T05:10:19.842Z,19.63
2018-06-20T05:12:48.465Z,19.45
2018-06-20T05:15:17.098Z,19.44
2018-06-20T05:17:46.021Z,19.77
2018-06-20T05:20:14.644Z,20.31
2018-06-20T05:22:43.525Z,20.69
2018-06-20T05:25:12.055Z,20.86
2018-06-20T05:27:40.643Z,21.13
2018-06-20T05:30:09.716Z,20.30
2018-06-20T05:32:38.379Z,20.30
2018-06-20T05:35:07.424Z,20.13
2018-06-20T05:37:36.511Z,19.75
2018-06-20T05:40:05.941Z,19.82
2018-06-20T05:42:34.901Z,19.80
2018-06-20T05:45:03.684Z,19.80
2018-06-20T05:47:32.646Z,19.74
2018-06-20T05:50:01.302Z,19.83
2018-06-20T05:52:30.467Z,20.87
2018-06-20T05:54:59.512Z,20.72
2018-06-20T05:57:28.618Z,21.75
2018-06-20T05:59:57.249Z,21.60
2018-06-20T06:02:26.110Z,21.14
2018-06-20T06:04:54.757Z,20.84
2018-06-20T06:07:23.483Z,22.22
2018-06-20T06:09:52.179Z,21.71
2018-06-20T06:12:20.877Z,21.20
2018-06-20T06:14:49.552Z,21.60
2018-06-20T06:17:18.193Z,23.51
2018-06-20T06:19:46.847Z,24.14
2018-06-20T06:22:15.536Z,24.38
2018-06-20T06:24:44.210Z,23.30
2018-06-20T06:27:13.025Z,22.46
2018-06-20T06:29:41.676Z,22.20
2018-06-20T06:32:10.269Z,21.90
2018-06-20T06:34:39.230Z,21.98
2018-06-20T06:37:07.901Z,22.71
2018-06-20T06:39:36.507Z,22.72
2018-06-20T06:42:05.494Z,22.68
2018-06-20T06:44:34.380Z,22.99
2018-06-20T06:47:02.995Z,23.83
2018-06-20T06:49:32.135Z,24.20
2018-06-20T06:52:01.154Z,25.17
2018-06-20T06:54:29.842Z,25.40
2018-06-20T06:56:58.531Z,25.76
2018-06-20T06:59:27.198Z,26.81
2018-06-20T07:01:55.902Z,27.28
2018-06-20T07:04:24.645Z,27.40
2018-06-20T07:06:53.236Z,27.66
2018-06-20T07:09:22.018Z,27.35
2018-06-20T07:11:50.718Z,27.48
2018-06-20T07:14:19.474Z,27.68
2018-06-20T07:16:48.384Z,28.01
2018-06-20T07:19:17.071Z,28.29
2018-06-20T07:21:45.726Z,28.11
2018-06-20T07:24:14.476Z,28.08
2018-06-20T07:26:43.393Z,27.76
2018-06-20T07:29:12.046Z,28.04
2018-06-20T07:31:41.476Z,28.03
2018-06-20T07:34:10.108Z,28.58
2018-06-20T07:36:38.776Z,28.50
2018-06-20T07:39:08.902Z,28.71
2018-06-20T07:41:38.219Z,29.13
2018-06-20T07:44:07.136Z,29.22
2018-06-20T07:46:36.495Z,29.10
2018-06-20T07:49:05.645Z,29.52
2018-06-20T07:51:34.330Z,30.08
2018-06-20T07:54:02.986Z,30.02
2018-06-20T07:56:32.731Z,29.81
2018-06-20T07:59:01.675Z,29.79
2018-06-20T08:01:46.839Z,29.84
2018-06-20T08:04:20.942Z,30.23
2018-06-20T08:06:54.753Z,30.79
2018-06-20T08:09:28.979Z,30.17
2018-06-20T08:12:02.811Z,29.54
2018-06-20T08:14:38.378Z,30.39
2018-06-20T08:17:12.629Z,30.78
2018-06-20T08:19:46.624Z,29.53
2018-06-20T08:22:18.622Z,29.27
2018-06-20T08:25:01.352Z,30.63
2018-06-20T08:27:31.067Z,31.05
2018-06-20T08:30:00.702Z,30.39
2018-06-20T08:32:29.691Z,30.65
2018-06-20T08:34:58.875Z,31.62
2018-06-20T08:37:27.942Z,32.35
2018-06-20T08:39:56.709Z,32.45
2018-06-20T08:42:25.960Z,31.99
2018-06-20T08:44:55.859Z,31.02
2018-06-20T08:47:25.014Z,31.07
2018-06-20T08:49:53.759Z,31.23
2018-06-20T08:52:22.787Z,30.44
2018-06-20T08:54:52.002Z,30.22
2018-06-20T08:57:21.093Z,30.90
2018-06-20T08:59:50.084Z,31.00
2018-06-20T09:02:19.803Z,31.22
2018-06-20T09:04:53.934Z,32.18
2018-06-20T09:07:28.114Z,30.48
2018-06-20T09:10:03.979Z,29.87
2018-06-20T09:12:38.063Z,30.57
2018-06-20T09:15:12.171Z,31.30
2018-06-20T09:17:46.145Z,31.70
2018-06-20T09:20:15.132Z,31.76
2018-06-20T09:22:43.792Z,32.39
2018-06-20T09:25:12.755Z,32.68
2018-06-20T09:27:41.552Z,32.52
2018-06-20T09:30:11.011Z,32.25
2018-06-20T09:32:40.042Z,32.02
2018-06-20T09:35:08.764Z,31.10
2018-06-20T09:37:37.670Z,31.24
2018-06-20T09:40:06.724Z,31.57
2018-06-20T09:42:35.387Z,32.60
2018-06-20T09:45:04.948Z,32.78
2018-06-20T09:47:34.155Z,32.53
2018-06-20T09:50:07.972Z,32.41
2018-06-20T09:52:37.352Z,32.72
2018-06-20T09:55:06.275Z,32.15
2018-06-20T09:57:35.055Z,32.94
2018-06-20T10:00:09.167Z,33.28
2018-06-20T10:02:42.877Z,33.71
2018-06-20T10:05:16.627Z,32.35
2018-06-20T10:07:50.980Z,30.33
2018-06-20T10:10:24.808Z,29.77
2018-06-20T10:12:58.752Z,29.10
2018-06-20T10:15:27.546Z,28.28
2018-06-20T10:17:56.466Z,28.00
2018-06-20T10:20:27.106Z,27.97
2018-06-20T10:22:57.702Z,27.97
2018-06-20T10:25:27.092Z,28.39
2018-06-20T10:27:55.774Z,30.35
2018-06-20T10:30:24.754Z,31.79
2018-06-20T10:32:53.786Z,32.40
2018-06-20T10:35:22.887Z,31.20
2018-06-20T10:37:51.525Z,30.22
2018-06-20T10:40:20.663Z,31.77
2018-06-20T10:42:49.660Z,32.63
2018-06-20T10:45:23.701Z,32.18
2018-06-20T10:47:52.627Z,30.08
2018-06-20T10:50:21.254Z,29.35
2018-06-20T10:52:50.075Z,29.02
2018-06-20T10:55:18.942Z,29.03
2018-06-20T10:57:52.787Z,30.76
2018-06-20T11:00:26.940Z,30.70
2018-06-20T11:03:00.874Z,29.68
2018-06-20T11:05:34.520Z,28.90
2018-06-20T11:08:08.734Z,30.04
2018-06-20T11:10:42.519Z,31.59
2018-06-20T11:13:12.850Z,31.81
2018-06-20T11:15:41.501Z,30.75
2018-06-20T11:18:10.462Z,30.74
2018-06-20T11:20:44.419Z,31.31
2018-06-20T11:23:13.152Z,31.70
2018-06-20T11:25:41.836Z,31.51
2018-06-20T11:28:12.222Z,31.02
2018-06-20T11:30:42.019Z,31.59
2018-06-20T11:33:11.411Z,31.69
2018-06-20T11:35:40.164Z,31.32
2018-06-20T11:38:08.859Z,30.47
2018-06-20T11:40:37.475Z,31.34
2018-06-20T11:43:06.475Z,31.33
2018-06-20T11:45:40.303Z,31.89
2018-06-20T11:48:09.635Z,32.21
2018-06-20T11:50:38.662Z,31.75
2018-06-20T11:53:08.865Z,31.63
2018-06-20T11:55:40.852Z,31.36
2018-06-20T11:58:14.846Z,31.55
2018-06-20T12:00:48.666Z,31.48
2018-06-20T12:03:22.591Z,30.52
2018-06-20T12:05:56.481Z,29.85
2018-06-20T12:08:30.378Z,30.78
2018-06-20T12:11:04.353Z,31.03
2018-06-20T12:13:38.676Z,30.86
2018-06-20T12:16:12.399Z,31.03
2018-06-20T12:18:46.112Z,30.67
2018-06-20T12:21:20.041Z,30.36
2018-06-20T12:23:53.935Z,30.43
2018-06-20T12:26:27.925Z,30.43
2018-06-20T12:29:01.808Z,30.90
2018-06-20T12:31:35.786Z,31.20
2018-06-20T12:34:09.804Z,31.11
2018-06-20T12:36:44.518Z,30.79
2018-06-20T12:39:12.304Z,30.10
2018-06-20T12:41:46.549Z,30.13
2018-06-20T12:44:20.208Z,30.17
2018-06-20T12:46:53.973Z,30.39
2018-06-20T12:49:27.329Z,30.38
2018-06-20T12:51:56.049Z,30.33
2018-06-20T12:54:24.776Z,29.76
2018-06-20T12:56:53.404Z,30.01
2018-06-20T12:59:22.182Z,30.32
2018-06-20T13:01:50.960Z,30.33
2018-06-20T13:04:19.687Z,30.54
2018-06-20T13:06:48.508Z,31.30
2018-06-20T13:09:17.169Z,32.20
2018-06-20T13:11:45.775Z,32.52
2018-06-20T13:14:14.834Z,31.92
2018-06-20T13:16:43.708Z,32.32
2018-06-20T13:19:12.775Z,32.55
2018-06-20T13:21:42.371Z,33.13
2018-06-20T13:24:11.024Z,33.34
2018-06-20T13:26:40.122Z,34.15
2018-06-20T13:29:09.227Z,34.23
2018-06-20T13:31:43.324Z,33.29
2018-06-20T13:34:17.525Z,31.16
2018-06-20T13:36:51.424Z,29.88
2018-06-20T13:39:25.262Z,29.22
2018-06-20T13:42:00.088Z,29.27
2018-06-20T13:44:29.603Z,29.34
2018-06-20T13:47:03.508Z,29.44
2018-06-20T13:49:32.529Z,29.70
2018-06-20T13:52:01.284Z,29.76
2018-06-20T13:54:29.973Z,29.27
2018-06-20T13:56:59.788Z,29.26
2018-06-20T13:59:29.026Z,29.04
2018-06-20T14:01:57.682Z,28.58
2018-06-20T14:04:27.127Z,28.42
2018-06-20T14:06:55.760Z,28.50
2018-06-20T14:09:24.673Z,28.63
2018-06-20T14:11:53.607Z,28.52
2018-06-20T14:14:22.551Z,28.37
2018-06-20T14:16:51.311Z,28.33
2018-06-20T14:19:25.274Z,28.32
2018-06-20T14:21:54.125Z,28.18
2018-06-20T14:24:24.928Z,28.08
2018-06-20T14:26:54.291Z,28.09
2018-06-20T14:29:22.996Z,27.91
2018-06-20T14:32:56.490Z,28.01
2018-06-20T14:35:30.721Z,28.21
2018-06-20T14:38:04.676Z,28.26
2018-06-20T14:40:38.558Z,28.08
2018-06-20T14:43:12.456Z,28.15
2018-06-20T14:46:20.093Z,28.15
2018-06-20T14:48:48.967Z,28.13
2018-06-20T14:51:18.362Z,28.05
2018-06-20T14:53:47.378Z,28.00
2018-06-20T14:56:17.262Z,28.07
2018-06-20T14:58:46.735Z,28.07
2018-06-20T15:01:15.965Z,28.06
2018-06-20T15:03:44.549Z,28.22
2018-06-20T15:06:13.203Z,28.10
2018-06-20T15:08:42.252Z,27.90
2018-06-20T15:11:11.012Z,27.89
2018-06-20T15:13:39.701Z,28.14
2018-06-20T15:16:13.819Z,28.13
2018-06-20T15:18:42.469Z,27.90
2018-06-20T15:21:11.139Z,27.84
2018-06-20T15:23:40.426Z,27.86
2018-06-20T15:26:14.376Z,27.82
2018-06-20T15:28:48.253Z,27.76
2018-06-20T15:31:22.555Z,27.83
2018-06-20T15:33:56.407Z,27.79
2018-06-20T15:36:30.651Z,27.75
2018-06-20T15:38:59.298Z,27.77
2018-06-20T15:41:28.428Z,27.61
2018-06-20T15:43:57.347Z,27.45
2018-06-20T15:46:26.139Z,27.37
2018-06-20T15:48:55.691Z,27.28
2018-06-20T15:51:26.454Z,27.34
2018-06-20T15:53:55.086Z,27.29
2018-06-20T15:56:23.853Z,27.30
2018-06-20T15:58:53.140Z,27.30
2018-06-20T16:01:22.559Z,27.28
2018-06-20T16:03:51.213Z,27.33
2018-06-20T16:06:20.327Z,27.26
2018-06-20T16:08:54.192Z,27.23
2018-06-20T16:11:24.463Z,27.19
2018-06-20T16:13:53.600Z,27.01
2018-06-20T16:16:22.463Z,27.25
2018-06-20T16:18:56.435Z,27.18
2018-06-20T16:21:39.123Z,27.16
2018-06-20T16:24:13.244Z,27.10
2018-06-20T16:26:47.987Z,27.07
2018-06-20T16:29:21.743Z,26.90
2018-06-20T16:31:50.851Z,26.81
2018-06-20T16:34:20.104Z,26.74
2018-06-20T16:36:48.968Z,26.72
2018-06-20T16:39:18.583Z,26.65
2018-06-20T16:41:47.210Z,26.56
2018-06-20T16:44:16.026Z,26.53
2018-06-20T16:46:44.798Z,26.47
2018-06-20T16:49:13.428Z,25.12
2018-06-20T16:51:42.033Z,26.50
2018-06-20T16:54:10.682Z,26.35
2018-06-20T16:56:39.521Z,26.36
2018-06-20T16:59:08.402Z,26.37
2018-06-20T17:02:43.811Z,26.36
2018-06-20T17:05:13.373Z,26.35
2018-06-20T17:07:42.383Z,26.17
2018-06-20T17:10:11.124Z,26.01
2018-06-20T17:12:44.883Z,25.98
2018-06-20T17:15:18.558Z,25.95
2018-06-20T17:17:52.516Z,25.99
2018-06-20T17:20:26.728Z,26.05
2018-06-20T17:23:59.067Z,25.94
2018-06-20T17:26:27.755Z,25.82
2018-06-20T17:28:56.462Z,25.77
2018-06-20T17:31:25.090Z,25.73
2018-06-20T17:33:53.839Z,25.70
2018-06-20T17:36:22.502Z,25.64
2018-06-20T17:38:51.512Z,25.56
2018-06-20T17:41:21.695Z,25.50
2018-06-20T17:43:50.361Z,25.50
2018-06-20T17:46:19.609Z,25.46
2018-06-20T17:48:48.305Z,25.37
2018-06-20T17:51:16.889Z,25.32
2018-06-20T17:53:46.667Z,25.23
2018-06-20T17:56:15.991Z,25.12
2018-06-20T17:58:44.650Z,25.03
2018-06-20T18:01:13.663Z,24.98
2018-06-20T18:03:42.767Z,24.95
2018-06-20T18:06:16.426Z,24.91
2018-06-20T18:08:50.110Z,24.79
2018-06-20T18:11:24.318Z,24.77
2018-06-20T18:13:58.206Z,24.73
2018-06-20T18:16:32.067Z,23.82
2018-06-20T18:19:00.750Z,24.58
2018-06-20T18:21:29.454Z,24.58
2018-06-20T18:23:58.395Z,24.55
2018-06-20T18:26:27.064Z,24.50
2018-06-20T18:28:56.034Z,24.47
2018-06-20T18:31:24.715Z,24.47
2018-06-20T18:33:53.322Z,24.44
2018-06-20T18:36:22.550Z,24.42
2018-06-20T18:38:51.547Z,24.44
2018-06-20T18:41:20.259Z,24.47
2018-06-20T18:43:48.896Z,24.46
2018-06-20T18:46:17.606Z,24.48
2018-06-20T18:48:46.596Z,24.50
2018-06-20T18:51:15.273Z,24.50
2018-06-20T18:53:44.271Z,24.49
2018-06-20T18:56:13.112Z,24.48
2018-06-20T18:58:47.694Z,24.44
2018-06-20T19:01:21.540Z,24.40
2018-06-20T19:03:55.661Z,24.40
2018-06-20T19:06:29.406Z,24.40
2018-06-20T19:09:07.764Z,24.38
2018-06-20T19:11:37.270Z,24.36
2018-06-20T19:14:06.130Z,24.37
2018-06-20T19:16:34.740Z,24.38
2018-06-20T19:19:04.277Z,24.36
2018-06-20T19:21:33.075Z,24.32
2018-06-20T19:24:01.924Z,24.28
2018-06-20T19:26:31.111Z,24.25
2018-06-20T19:28:59.970Z,24.16
2018-06-20T19:31:28.704Z,24.08
2018-06-20T19:33:57.521Z,24.03
2018-06-20T19:36:26.333Z,23.98
2018-06-20T19:38:55.175Z,23.99
2018-06-20T19:41:23.907Z,23.96
2018-06-20T19:43:57.868Z,23.94
2018-06-20T19:46:26.640Z,23.88
2018-06-20T19:48:55.370Z,23.76
2018-06-20T19:51:24.009Z,23.69
2018-06-20T19:53:52.761Z,23.65
2018-06-20T19:56:21.768Z,23.65
2018-06-20T19:58:50.439Z,23.61
2018-06-20T20:01:19.163Z,23.50
2018-06-20T20:03:47.865Z,23.44
2018-06-20T20:06:16.487Z,23.40
2018-06-20T20:08:45.312Z,23.33
2018-06-20T20:11:13.977Z,23.19
2018-06-20T20:13:42.628Z,23.11
2018-06-20T20:16:11.314Z,23.02
2018-06-20T20:18:40.143Z,22.98
2018-06-20T20:21:08.812Z,22.91
2018-06-20T20:23:37.465Z,22.87
2018-06-20T20:26:06.126Z,22.88
2018-06-20T20:28:34.794Z,22.86
2018-06-20T20:31:03.483Z,22.84
2018-06-20T20:33:32.127Z,22.80
2018-06-20T20:36:00.772Z,22.72
2018-06-20T20:38:29.408Z,22.62
2018-06-20T20:40:58.047Z,22.60
2018-06-20T20:43:26.711Z,22.59
2018-06-20T20:45:55.380Z,22.55
2018-06-20T20:48:24.063Z,22.52
2018-06-20T20:50:52.822Z,22.51
2018-06-20T20:53:21.451Z,22.57
2018-06-20T20:55:50.230Z,22.54
2018-06-20T20:58:18.833Z,22.50
2018-06-20T21:00:47.532Z,22.45
2018-06-20T21:03:16.187Z,22.43
2018-06-20T21:05:45.166Z,22.38
2018-06-20T21:08:13.853Z,22.35
2018-06-20T21:10:42.550Z,22.28
2018-06-20T21:13:11.303Z,22.19
2018-06-20T21:15:40.588Z,22.05
2018-06-20T21:18:09.226Z,22.06
2018-06-20T21:20:37.902Z,22.13
2018-06-20T21:23:06.554Z,22.14
2018-06-20T21:25:35.432Z,22.09
2018-06-20T21:28:04.228Z,22.06
2018-06-20T21:30:32.886Z,21.90
2018-06-20T21:33:01.518Z,21.84
2018-06-20T21:35:30.247Z,21.80
2018-06-20T21:37:59.339Z,21.79
2018-06-20T21:40:28.302Z,21.78
2018-06-20T21:42:57.246Z,21.52
2018-06-20T21:45:26.185Z,21.37
2018-06-20T21:47:54.855Z,21.38
2018-06-20T21:50:23.770Z,21.46
2018-06-20T21:52:52.384Z,21.50
2018-06-20T21:55:21.031Z,21.57
2018-06-20T21:57:49.720Z,21.63
2018-06-20T22:00:18.349Z,20.28
2018-06-20T22:02:46.991Z,21.71
2018-06-20T22:05:15.789Z,21.72
2018-06-20T22:07:44.439Z,21.64
2018-06-20T22:10:13.082Z,21.57
2018-06-20T22:12:41.702Z,21.57
2018-06-20T22:15:10.563Z,21.45
2018-06-20T22:17:39.188Z,21.46
2018-06-20T22:20:07.899Z,21.52
2018-06-20T22:22:36.548Z,21.58
2018-06-20T22:25:05.293Z,21.61
2018-06-20T22:27:33.958Z,21.65
2018-06-20T22:30:02.879Z,21.63
2018-06-20T22:32:31.873Z,21.62
2018-06-20T22:35:01.016Z,21.58
2018-06-20T22:37:29.626Z,21.45
2018-06-20T22:39:58.641Z,21.35
2018-06-20T22:42:27.233Z,21.19
2018-06-20T22:44:56.906Z,21.03
2018-06-20T22:47:25.519Z,19.68
2018-06-20T22:49:54.186Z,21.14
2018-06-20T22:52:22.814Z,21.04
2018-06-20T22:54:51.439Z,20.80
2018-06-20T22:57:20.082Z,20.60
2018-06-20T22:59:48.719Z,20.48
2018-06-20T23:02:17.386Z,20.50
2018-06-20T23:04:46.023Z,20.50
2018-06-20T23:07:14.844Z,20.61
2018-06-20T23:09:43.555Z,20.74
2018-06-20T23:12:12.122Z,20.70
2018-06-20T23:14:40.825Z,20.58
2018-06-20T23:17:09.477Z,20.59
2018-06-20T23:19:38.081Z,20.54
2018-06-20T23:22:06.745Z,20.47
2018-06-20T23:24:35.365Z,20.34
2018-06-20T23:27:04.353Z,20.40
2018-06-20T23:29:32.988Z,20.45
2018-06-20T23:32:01.611Z,20.32
2018-06-20T23:34:30.540Z,20.27
2018-06-20T23:36:59.163Z,20.34
2018-06-20T23:39:27.853Z,20.40
2018-06-20T23:41:56.466Z,20.45
2018-06-20T23:44:25.083Z,20.53
2018-06-20T23:46:53.699Z,20.56
2018-06-20T23:49:22.290Z,20.52
2018-06-20T23:51:50.938Z,20.51
2018-06-20T23:54:19.572Z,20.51
2018-06-20T23:56:48.220Z,20.53
2018-06-20T23:59:16.844Z,20.52
